Lisbon, ME (04250)

4:43 AM EDT on October 21, 2019 (GMT -0400)
END OF COUNTRY LANE | | Change Station

Elev 157 ft 44.00 °N, 70.10 °W | Updated 55 seconds ago

Overcast
Overcast
44.1 °F
Feels Like 44 °F
N
0
Wind Variable Wind from West
Gusts 0.0 mph

Today
High -- | Low -- °F
--% Chance of Precip.
Yesterday
High -- | Low -- °F
Precip. -- in
Pressure 30.11 in
Visibility 10.0 miles
Clouds Few 700 ft
Overcast 8000 ft
Windchill 44 °F
Dew Point 42 °F
Humidity 94%
Rainfall 0.00 in
Snow Depth Not available.
7:02 AM 5:47 PM
Waning Gibbous, 52% visible
METAR KLEW 210756Z AUTO 00000KT 10SM FEW007 OVC080 07/07 A3008 RMK AO2 SLP194 T00720067
Pressure 30.11 in
Visibility 10.0 miles
Clouds Few 700 ft
Overcast 8000 ft
Windchill 44 °F
Dew Point 42 °F
Humidity 94%
Rainfall 0.00 in
Snow Depth Not available.
7:02 AM 5:47 PM
Waning Gibbous, 52% visible
METAR KLEW 210756Z AUTO 00000KT 10SM FEW007 OVC080 07/07 A3008 RMK AO2 SLP194 T00720067

Get Severe Weather Alerts

Thanks for signing up!

Be on the lookout for a verification email in your inbox.

You'll start receiving the daily forecast at 6 AM.

×

10-Day Weather Forecast

Almanac

Astronomy

Oct. 21, 2019 Rise Set
Actual Time
Civil Twilight
Nautical Twilight
Astronomical Twilight
Moon
Length of Visible Light
Length of Day
Tomorrow will be .
, % of the Moon is Illuminated

Today's Extremes

State Highs State Lows

Community

WunderPhotos

Category 6

Welcome to Category 6. This is the collective home for Weather Underground's featured writeups by Dr. Jeff Masters (right), Bob Henson (left), Chris Burt, and other regular contributors.

Nearby

Air Quality

  Air Quality AQ Index Pollutant
Not available.

Snow Depth

Station Depth Elevation

Earthquake Activity

City Distance Mag. Time & Date
Minimum magnitude displayed is 2.5.

Coastal Water Temperatures

Place Temperature

Stations

Nearby Weather Stations

Station Location Temp. Windchill Dew Point Humidity Wind Precip. Elev Updated Type
                   

Watches & Warnings

There are currently no watches in effect.